sensor_id;sensor_type;location;lat;lon;timestamp;temperature;humidity
25438;DHT22;13364;49.084;9.978;2024-02-28T00:00:26;5.20;100.00
25438;DHT22;13364;49.084;9.978;2024-02-28T00:02:53;5.20;100.00
25438;DHT22;13364;49.084;9.978;2024-02-28T00:05:20;5.20;100.00
25438;DHT22;13364;49.084;9.978;2024-02-28T00:07:47;5.10;100.00
25438;DHT22;13364;49.084;9.978;2024-02-28T00:10:14;5.10;100.00
25438;DHT22;13364;49.084;9.978;2024-02-28T00:12:41;5.20;100.00
25438;DHT22;13364;49.084;9.978;2024-02-28T00:15:08;5.20;100.00
25438;DHT22;13364;49.084;9.978;2024-02-28T00:17:39;5.20;100.00
25438;DHT22;13364;49.084;9.978;2024-02-28T00:20:08;5.30;100.00
25438;DHT22;13364;49.084;9.978;2024-02-28T00:22:36;5.30;100.00
25438;DHT22;13364;49.084;9.978;2024-02-28T00:25:06;5.30;100.00
25438;DHT22;13364;49.084;9.978;2024-02-28T00:27:34;5.30;100.00
25438;DHT22;13364;49.084;9.978;2024-02-28T00:30:02;5.30;100.00
25438;DHT22;13364;49.084;9.978;2024-02-28T00:32:33;5.30;100.00
25438;DHT22;13364;49.084;9.978;2024-02-28T00:34:59;5.20;100.00
25438;DHT22;13364;49.084;9.978;2024-02-28T00:37:26;5.30;100.00
25438;DHT22;13364;49.084;9.978;2024-02-28T00:39:53;5.20;100.00
25438;DHT22;13364;49.084;9.978;2024-02-28T00:42:21;5.20;100.00
25438;DHT22;13364;49.084;9.978;2024-02-28T00:44:47;5.20;100.00
25438;DHT22;13364;49.084;9.978;2024-02-28T00:47:15;5.20;100.00
25438;DHT22;13364;49.084;9.978;2024-02-28T00:49:41;5.30;100.00
25438;DHT22;13364;49.084;9.978;2024-02-28T00:52:08;5.40;100.00
25438;DHT22;13364;49.084;9.978;2024-02-28T00:54:35;5.50;100.00
25438;DHT22;13364;49.084;9.978;2024-02-28T00:57:02;5.50;100.00
25438;DHT22;13364;49.084;9.978;2024-02-28T00:59:29;5.40;100.00
25438;DHT22;13364;49.084;9.978;2024-02-28T01:01:56;5.50;100.00
25438;DHT22;13364;49.084;9.978;2024-02-28T01:04:22;5.50;100.00
25438;DHT22;13364;49.084;9.978;2024-02-28T01:06:49;5.50;100.00
25438;DHT22;13364;49.084;9.978;2024-02-28T01:09:16;5.40;100.00
25438;DHT22;13364;49.084;9.978;2024-02-28T01:11:43;5.40;100.00
25438;DHT22;13364;49.084;9.978;2024-02-28T01:14:10;5.40;100.00
25438;DHT22;13364;49.084;9.978;2024-02-28T01:16:36;5.40;100.00
25438;DHT22;13364;49.084;9.978;2024-02-28T01:19:03;5.40;100.00
25438;DHT22;13364;49.084;9.978;2024-02-28T01:21:30;5.30;100.00
25438;DHT22;13364;49.084;9.978;2024-02-28T01:23:57;5.20;100.00
25438;DHT22;13364;49.084;9.978;2024-02-28T01:26:23;5.10;100.00
25438;DHT22;13364;49.084;9.978;2024-02-28T01:28:50;5.20;100.00
25438;DHT22;13364;49.084;9.978;2024-02-28T01:31:17;5.10;100.00
25438;DHT22;13364;49.084;9.978;2024-02-28T01:33:44;5.00;100.00
25438;DHT22;13364;49.084;9.978;2024-02-28T01:36:11;5.00;100.00
25438;DHT22;13364;49.084;9.978;2024-02-28T01:38:38;5.00;100.00
25438;DHT22;13364;49.084;9.978;2024-02-28T01:41:05;4.90;100.00
25438;DHT22;13364;49.084;9.978;2024-02-28T01:43:32;4.80;100.00
25438;DHT22;13364;49.084;9.978;2024-02-28T01:46:01;4.80;100.00
25438;DHT22;13364;49.084;9.978;2024-02-28T01:48:30;4.80;100.00
25438;DHT22;13364;49.084;9.978;2024-02-28T01:50:57;4.70;100.00
25438;DHT22;13364;49.084;9.978;2024-02-28T01:53:24;4.70;100.00
25438;DHT22;13364;49.084;9.978;2024-02-28T01:55:52;4.70;100.00
25438;DHT22;13364;49.084;9.978;2024-02-28T01:58:20;4.70;100.00
25438;DHT22;13364;49.084;9.978;2024-02-28T02:00:47;4.70;100.00
25438;DHT22;13364;49.084;9.978;2024-02-28T02:03:15;4.60;100.00
25438;DHT22;13364;49.084;9.978;2024-02-28T02:05:44;4.50;100.00
25438;DHT22;13364;49.084;9.978;2024-02-28T02:08:11;4.60;100.00
25438;DHT22;13364;49.084;9.978;2024-02-28T02:10:38;4.60;100.00
25438;DHT22;13364;49.084;9.978;2024-02-28T02:13:06;4.50;100.00
25438;DHT22;13364;49.084;9.978;2024-02-28T02:15:33;4.50;100.00
25438;DHT22;13364;49.084;9.978;2024-02-28T02:18:00;4.60;100.00
25438;DHT22;13364;49.084;9.978;2024-02-28T02:20:30;4.60;100.00
25438;DHT22;13364;49.084;9.978;2024-02-28T02:22:59;4.70;100.00
25438;DHT22;13364;49.084;9.978;2024-02-28T02:25:26;4.70;100.00
25438;DHT22;13364;49.084;9.978;2024-02-28T02:27:53;4.80;100.00
25438;DHT22;13364;49.084;9.978;2024-02-28T02:30:20;4.80;100.00
25438;DHT22;13364;49.084;9.978;2024-02-28T02:32:47;4.90;100.00
25438;DHT22;13364;49.084;9.978;2024-02-28T02:35:14;4.90;100.00
25438;DHT22;13364;49.084;9.978;2024-02-28T02:37:44;4.90;100.00
25438;DHT22;13364;49.084;9.978;2024-02-28T02:40:15;4.90;100.00
25438;DHT22;13364;49.084;9.978;2024-02-28T02:42:42;5.00;100.00
25438;DHT22;13364;49.084;9.978;2024-02-28T02:45:09;5.00;100.00
25438;DHT22;13364;49.084;9.978;2024-02-28T02:47:36;4.90;100.00
25438;DHT22;13364;49.084;9.978;2024-02-28T02:50:03;4.90;100.00
25438;DHT22;13364;49.084;9.978;2024-02-28T02:52:30;4.90;100.00
25438;DHT22;13364;49.084;9.978;2024-02-28T02:54:57;4.90;100.00
25438;DHT22;13364;49.084;9.978;2024-02-28T02:57:24;5.00;100.00
25438;DHT22;13364;49.084;9.978;2024-02-28T02:59:51;5.10;100.00
25438;DHT22;13364;49.084;9.978;2024-02-28T03:02:18;5.20;100.00
25438;DHT22;13364;49.084;9.978;2024-02-28T03:04:44;5.30;100.00
25438;DHT22;13364;49.084;9.978;2024-02-28T03:07:11;5.40;100.00
25438;DHT22;13364;49.084;9.978;2024-02-28T03:09:38;5.40;100.00
25438;DHT22;13364;49.084;9.978;2024-02-28T03:12:05;5.40;100.00
25438;DHT22;13364;49.084;9.978;2024-02-28T03:14:31;5.40;100.00
25438;DHT22;13364;49.084;9.978;2024-02-28T03:16:58;5.50;100.00
25438;DHT22;13364;49.084;9.978;2024-02-28T03:19:25;5.40;100.00
25438;DHT22;13364;49.084;9.978;2024-02-28T03:21:52;5.50;100.00
25438;DHT22;13364;49.084;9.978;2024-02-28T03:24:19;5.50;100.00
25438;DHT22;13364;49.084;9.978;2024-02-28T03:26:46;5.50;100.00
25438;DHT22;13364;49.084;9.978;2024-02-28T03:29:13;5.40;100.00
25438;DHT22;13364;49.084;9.978;2024-02-28T03:31:40;5.40;100.00
25438;DHT22;13364;49.084;9.978;2024-02-28T03:34:06;5.40;100.00
25438;DHT22;13364;49.084;9.978;2024-02-28T03:36:35;5.30;100.00
25438;DHT22;13364;49.084;9.978;2024-02-28T03:39:02;5.30;100.00
25438;DHT22;13364;49.084;9.978;2024-02-28T03:41:29;5.30;100.00
25438;DHT22;13364;49.084;9.978;2024-02-28T03:43:56;5.40;100.00
25438;DHT22;13364;49.084;9.978;2024-02-28T03:46:22;5.30;100.00
25438;DHT22;13364;49.084;9.978;2024-02-28T03:48:49;5.30;100.00
25438;DHT22;13364;49.084;9.978;2024-02-28T03:51:17;5.20;100.00
25438;DHT22;13364;49.084;9.978;2024-02-28T03:53:44;5.20;100.00
25438;DHT22;13364;49.084;9.978;2024-02-28T03:56:10;5.30;100.00
25438;DHT22;13364;49.084;9.978;2024-02-28T03:58:40;5.40;100.00
25438;DHT22;13364;49.084;9.978;2024-02-28T04:01:06;5.40;100.00
25438;DHT22;13364;49.084;9.978;2024-02-28T04:03:33;5.50;100.00
25438;DHT22;13364;49.084;9.978;2024-02-28T04:06:00;5.50;100.00
25438;DHT22;13364;49.084;9.978;2024-02-28T04:08:27;5.50;100.00
25438;DHT22;13364;49.084;9.978;2024-02-28T04:10:53;5.60;99.90
25438;DHT22;13364;49.084;9.978;2024-02-28T04:13:20;5.60;99.90
25438;DHT22;13364;49.084;9.978;2024-02-28T04:15:47;5.60;99.60
25438;DHT22;13364;49.084;9.978;2024-02-28T04:18:14;5.50;99.60
25438;DHT22;13364;49.084;9.978;2024-02-28T04:20:41;5.50;99.70
25438;DHT22;13364;49.084;9.978;2024-02-28T04:23:08;5.50;99.80
25438;DHT22;13364;49.084;9.978;2024-02-28T04:25:34;5.40;100.00
25438;DHT22;13364;49.084;9.978;2024-02-28T04:28:02;5.30;100.00
25438;DHT22;13364;49.084;9.978;2024-02-28T04:30:29;5.20;100.00
25438;DHT22;13364;49.084;9.978;2024-02-28T04:32:56;5.20;100.00
25438;DHT22;13364;49.084;9.978;2024-02-28T04:35:23;5.10;100.00
25438;DHT22;13364;49.084;9.978;2024-02-28T04:37:50;5.10;100.00
25438;DHT22;13364;49.084;9.978;2024-02-28T04:40:17;5.00;100.00
25438;DHT22;13364;49.084;9.978;2024-02-28T04:42:44;5.00;100.00
25438;DHT22;13364;49.084;9.978;2024-02-28T04:45:11;5.00;100.00
25438;DHT22;13364;49.084;9.978;2024-02-28T04:47:38;4.90;100.00
25438;DHT22;13364;49.084;9.978;2024-02-28T04:50:10;4.90;100.00
25438;DHT22;13364;49.084;9.978;2024-02-28T04:52:37;4.80;100.00
25438;DHT22;13364;49.084;9.978;2024-02-28T04:55:04;4.60;100.00
25438;DHT22;13364;49.084;9.978;2024-02-28T04:57:31;4.50;100.00
25438;DHT22;13364;49.084;9.978;2024-02-28T04:59:58;4.40;100.00
25438;DHT22;13364;49.084;9.978;2024-02-28T05:02:25;4.40;100.00
25438;DHT22;13364;49.084;9.978;2024-02-28T05:04:52;4.40;100.00
25438;DHT22;13364;49.084;9.978;2024-02-28T05:07:19;4.40;100.00
25438;DHT22;13364;49.084;9.978;2024-02-28T05:09:46;4.40;100.00
25438;DHT22;13364;49.084;9.978;2024-02-28T05:12:13;4.30;100.00
25438;DHT22;13364;49.084;9.978;2024-02-28T05:14:40;4.20;100.00
25438;DHT22;13364;49.084;9.978;2024-02-28T05:17:06;4.10;100.00
25438;DHT22;13364;49.084;9.978;2024-02-28T05:19:33;4.00;100.00
25438;DHT22;13364;49.084;9.978;2024-02-28T05:22:00;3.90;100.00
25438;DHT22;13364;49.084;9.978;2024-02-28T05:24:28;3.90;100.00
25438;DHT22;13364;49.084;9.978;2024-02-28T05:26:55;4.00;100.00
25438;DHT22;13364;49.084;9.978;2024-02-28T05:29:22;3.90;100.00
25438;DHT22;13364;49.084;9.978;2024-02-28T05:31:49;3.90;100.00
25438;DHT22;13364;49.084;9.978;2024-02-28T05:34:16;3.90;100.00
25438;DHT22;13364;49.084;9.978;2024-02-28T05:36:43;3.80;100.00
25438;DHT22;13364;49.084;9.978;2024-02-28T05:39:10;3.70;100.00
25438;DHT22;13364;49.084;9.978;2024-02-28T05:41:36;3.70;100.00
25438;DHT22;13364;49.084;9.978;2024-02-28T05:44:03;3.70;100.00
25438;DHT22;13364;49.084;9.978;2024-02-28T05:46:30;3.70;100.00
25438;DHT22;13364;49.084;9.978;2024-02-28T05:48:57;3.70;100.00
25438;DHT22;13364;49.084;9.978;2024-02-28T05:51:24;3.70;100.00
25438;DHT22;13364;49.084;9.978;2024-02-28T05:53:51;3.70;100.00
25438;DHT22;13364;49.084;9.978;2024-02-28T05:56:18;3.70;100.00
25438;DHT22;13364;49.084;9.978;2024-02-28T05:58:46;3.70;100.00
25438;DHT22;13364;49.084;9.978;2024-02-28T06:01:17;3.60;100.00
25438;DHT22;13364;49.084;9.978;2024-02-28T06:03:47;3.60;100.00
25438;DHT22;13364;49.084;9.978;2024-02-28T06:06:14;3.60;100.00
25438;DHT22;13364;49.084;9.978;2024-02-28T06:08:41;3.50;100.00
25438;DHT22;13364;49.084;9.978;2024-02-28T06:11:08;3.50;100.00
25438;DHT22;13364;49.084;9.978;2024-02-28T06:13:35;3.50;100.00
25438;DHT22;13364;49.084;9.978;2024-02-28T06:16:02;3.40;100.00
25438;DHT22;13364;49.084;9.978;2024-02-28T06:18:30;3.40;100.00
25438;DHT22;13364;49.084;9.978;2024-02-28T06:21:00;3.40;100.00
25438;DHT22;13364;49.084;9.978;2024-02-28T06:23:28;3.40;100.00
25438;DHT22;13364;49.084;9.978;2024-02-28T06:25:56;3.40;100.00
25438;DHT22;13364;49.084;9.978;2024-02-28T06:28:24;3.50;100.00
25438;DHT22;13364;49.084;9.978;2024-02-28T06:30:51;3.60;100.00
25438;DHT22;13364;49.084;9.978;2024-02-28T06:33:18;3.60;100.00
25438;DHT22;13364;49.084;9.978;2024-02-28T06:35:45;3.60;100.00
25438;DHT22;13364;49.084;9.978;2024-02-28T06:38:12;3.70;100.00
25438;DHT22;13364;49.084;9.978;2024-02-28T06:40:39;3.70;100.00
25438;DHT22;13364;49.084;9.978;2024-02-28T06:43:07;3.70;100.00
25438;DHT22;13364;49.084;9.978;2024-02-28T06:45:34;3.70;100.00
25438;DHT22;13364;49.084;9.978;2024-02-28T06:48:02;3.70;100.00
25438;DHT22;13364;49.084;9.978;2024-02-28T06:50:30;3.60;100.00
25438;DHT22;13364;49.084;9.978;2024-02-28T06:52:56;3.50;100.00
25438;DHT22;13364;49.084;9.978;2024-02-28T06:55:23;3.50;100.00
25438;DHT22;13364;49.084;9.978;2024-02-28T06:57:50;3.40;100.00
25438;DHT22;13364;49.084;9.978;2024-02-28T07:00:17;3.40;100.00
25438;DHT22;13364;49.084;9.978;2024-02-28T07:02:45;3.30;100.00
25438;DHT22;13364;49.084;9.978;2024-02-28T07:05:12;3.30;100.00
25438;DHT22;13364;49.084;9.978;2024-02-28T07:07:39;3.40;100.00
25438;DHT22;13364;49.084;9.978;2024-02-28T07:10:06;3.40;100.00
25438;DHT22;13364;49.084;9.978;2024-02-28T07:12:33;3.50;100.00
25438;DHT22;13364;49.084;9.978;2024-02-28T07:15:00;3.50;100.00
25438;DHT22;13364;49.084;9.978;2024-02-28T07:17:27;3.60;100.00
25438;DHT22;13364;49.084;9.978;2024-02-28T07:19:54;3.80;100.00
25438;DHT22;13364;49.084;9.978;2024-02-28T07:22:21;3.90;100.00
25438;DHT22;13364;49.084;9.978;2024-02-28T07:24:48;3.90;100.00
25438;DHT22;13364;49.084;9.978;2024-02-28T07:27:15;4.00;100.00
25438;DHT22;13364;49.084;9.978;2024-02-28T07:29:43;4.00;100.00
25438;DHT22;13364;49.084;9.978;2024-02-28T07:32:10;4.10;100.00
25438;DHT22;13364;49.084;9.978;2024-02-28T07:34:37;4.20;100.00
25438;DHT22;13364;49.084;9.978;2024-02-28T07:37:04;4.30;100.00
25438;DHT22;13364;49.084;9.978;2024-02-28T07:39:31;4.40;100.00
25438;DHT22;13364;49.084;9.978;2024-02-28T07:41:58;4.50;100.00
25438;DHT22;13364;49.084;9.978;2024-02-28T07:44:25;4.60;100.00
25438;DHT22;13364;49.084;9.978;2024-02-28T07:46:52;4.70;100.00
25438;DHT22;13364;49.084;9.978;2024-02-28T07:49:19;4.70;100.00
25438;DHT22;13364;49.084;9.978;2024-02-28T07:51:46;4.60;100.00
25438;DHT22;13364;49.084;9.978;2024-02-28T07:54:13;4.60;100.00
25438;DHT22;13364;49.084;9.978;2024-02-28T07:56:40;4.50;100.00
25438;DHT22;13364;49.084;9.978;2024-02-28T07:59:06;4.60;100.00
25438;DHT22;13364;49.084;9.978;2024-02-28T08:01:33;4.60;100.00
25438;DHT22;13364;49.084;9.978;2024-02-28T08:04:01;4.70;100.00
25438;DHT22;13364;49.084;9.978;2024-02-28T08:06:29;4.70;100.00
25438;DHT22;13364;49.084;9.978;2024-02-28T08:08:56;4.70;100.00
25438;DHT22;13364;49.084;9.978;2024-02-28T08:11:23;4.70;100.00
25438;DHT22;13364;49.084;9.978;2024-02-28T08:13:50;4.80;100.00
25438;DHT22;13364;49.084;9.978;2024-02-28T08:16:17;4.80;100.00
25438;DHT22;13364;49.084;9.978;2024-02-28T08:18:44;4.90;100.00
25438;DHT22;13364;49.084;9.978;2024-02-28T08:21:11;4.90;100.00
25438;DHT22;13364;49.084;9.978;2024-02-28T08:23:38;5.00;100.00
25438;DHT22;13364;49.084;9.978;2024-02-28T08:26:05;5.10;100.00
25438;DHT22;13364;49.084;9.978;2024-02-28T08:28:32;5.00;100.00
25438;DHT22;13364;49.084;9.978;2024-02-28T08:30:59;4.90;100.00
25438;DHT22;13364;49.084;9.978;2024-02-28T08:33:26;4.80;100.00
25438;DHT22;13364;49.084;9.978;2024-02-28T08:35:53;4.80;100.00
25438;DHT22;13364;49.084;9.978;2024-02-28T08:38:20;4.70;100.00
25438;DHT22;13364;49.084;9.978;2024-02-28T08:40:47;4.60;100.00
25438;DHT22;13364;49.084;9.978;2024-02-28T08:43:14;4.60;100.00
25438;DHT22;13364;49.084;9.978;2024-02-28T08:45:41;4.60;100.00
25438;DHT22;13364;49.084;9.978;2024-02-28T08:48:08;4.60;100.00
25438;DHT22;13364;49.084;9.978;2024-02-28T08:50:35;4.50;100.00
25438;DHT22;13364;49.084;9.978;2024-02-28T08:53:02;4.50;100.00
25438;DHT22;13364;49.084;9.978;2024-02-28T08:55:30;4.60;100.00
25438;DHT22;13364;49.084;9.978;2024-02-28T08:57:57;4.60;100.00
25438;DHT22;13364;49.084;9.978;2024-02-28T09:00:25;4.70;100.00
25438;DHT22;13364;49.084;9.978;2024-02-28T09:02:52;4.70;100.00
25438;DHT22;13364;49.084;9.978;2024-02-28T09:05:19;4.60;100.00
25438;DHT22;13364;49.084;9.978;2024-02-28T09:07:46;4.50;100.00
25438;DHT22;13364;49.084;9.978;2024-02-28T09:10:18;4.40;100.00
25438;DHT22;13364;49.084;9.978;2024-02-28T09:12:50;4.40;100.00
25438;DHT22;13364;49.084;9.978;2024-02-28T09:15:17;4.40;100.00
25438;DHT22;13364;49.084;9.978;2024-02-28T09:17:44;4.40;100.00
25438;DHT22;13364;49.084;9.978;2024-02-28T09:20:11;4.40;100.00
25438;DHT22;13364;49.084;9.978;2024-02-28T09:22:38;4.50;100.00
25438;DHT22;13364;49.084;9.978;2024-02-28T09:25:06;4.50;100.00
25438;DHT22;13364;49.084;9.978;2024-02-28T09:27:36;4.60;100.00
25438;DHT22;13364;49.084;9.978;2024-02-28T09:30:03;4.60;100.00
25438;DHT22;13364;49.084;9.978;2024-02-28T09:32:30;4.60;100.00
25438;DHT22;13364;49.084;9.978;2024-02-28T09:34:57;4.60;100.00
25438;DHT22;13364;49.084;9.978;2024-02-28T09:37:24;4.70;100.00
25438;DHT22;13364;49.084;9.978;2024-02-28T09:39:51;4.70;100.00
25438;DHT22;13364;49.084;9.978;2024-02-28T09:42:19;4.60;100.00
25438;DHT22;13364;49.084;9.978;2024-02-28T09:44:47;4.50;100.00
25438;DHT22;13364;49.084;9.978;2024-02-28T09:47:14;4.60;100.00
25438;DHT22;13364;49.084;9.978;2024-02-28T09:49:45;4.60;100.00
25438;DHT22;13364;49.084;9.978;2024-02-28T09:52:16;4.60;100.00
25438;DHT22;13364;49.084;9.978;2024-02-28T09:54:43;4.60;100.00
25438;DHT22;13364;49.084;9.978;2024-02-28T09:57:11;4.60;100.00
25438;DHT22;13364;49.084;9.978;2024-02-28T09:59:39;4.60;100.00
25438;DHT22;13364;49.084;9.978;2024-02-28T10:02:20;4.70;100.00
25438;DHT22;13364;49.084;9.978;2024-02-28T10:04:48;4.80;100.00
25438;DHT22;13364;49.084;9.978;2024-02-28T10:07:15;4.90;100.00
25438;DHT22;13364;49.084;9.978;2024-02-28T10:09:42;5.00;100.00
25438;DHT22;13364;49.084;9.978;2024-02-28T10:12:09;5.00;100.00
25438;DHT22;13364;49.084;9.978;2024-02-28T10:14:36;5.10;100.00
25438;DHT22;13364;49.084;9.978;2024-02-28T10:17:05;5.10;100.00
25438;DHT22;13364;49.084;9.978;2024-02-28T10:19:32;5.10;100.00
25438;DHT22;13364;49.084;9.978;2024-02-28T10:21:59;5.20;100.00
25438;DHT22;13364;49.084;9.978;2024-02-28T10:24:26;5.20;100.00
25438;DHT22;13364;49.084;9.978;2024-02-28T10:26:53;5.20;100.00
25438;DHT22;13364;49.084;9.978;2024-02-28T10:29:24;5.20;100.00
25438;DHT22;13364;49.084;9.978;2024-02-28T10:31:52;5.30;100.00
25438;DHT22;13364;49.084;9.978;2024-02-28T10:34:18;5.40;100.00
25438;DHT22;13364;49.084;9.978;2024-02-28T10:36:46;5.50;100.00
25438;DHT22;13364;49.084;9.978;2024-02-28T10:39:14;5.60;100.00
25438;DHT22;13364;49.084;9.978;2024-02-28T10:41:42;5.70;100.00
25438;DHT22;13364;49.084;9.978;2024-02-28T10:44:09;5.70;99.20
25438;DHT22;13364;49.084;9.978;2024-02-28T10:46:39;5.70;98.50
25438;DHT22;13364;49.084;9.978;2024-02-28T10:49:07;5.70;99.00
25438;DHT22;13364;49.084;9.978;2024-02-28T10:51:36;5.70;99.20
25438;DHT22;13364;49.084;9.978;2024-02-28T10:54:08;5.80;98.80
25438;DHT22;13364;49.084;9.978;2024-02-28T10:56:41;5.90;99.10
25438;DHT22;13364;49.084;9.978;2024-02-28T10:59:10;6.00;98.50
25438;DHT22;13364;49.084;9.978;2024-02-28T11:01:45;6.00;97.80
25438;DHT22;13364;49.084;9.978;2024-02-28T11:04:23;6.10;98.00
25438;DHT22;13364;49.084;9.978;2024-02-28T11:06:54;6.30;98.10
25438;DHT22;13364;49.084;9.978;2024-02-28T11:09:22;6.50;96.80
25438;DHT22;13364;49.084;9.978;2024-02-28T11:11:50;6.50;95.80
25438;DHT22;13364;49.084;9.978;2024-02-28T11:14:18;6.40;95.70
25438;DHT22;13364;49.084;9.978;2024-02-28T11:17:03;6.40;95.80
25438;DHT22;13364;49.084;9.978;2024-02-28T11:19:31;6.30;95.80
25438;DHT22;13364;49.084;9.978;2024-02-28T11:22:00;6.40;96.10
25438;DHT22;13364;49.084;9.978;2024-02-28T11:24:32;6.40;95.90
25438;DHT22;13364;49.084;9.978;2024-02-28T11:26:59;6.40;95.60
25438;DHT22;13364;49.084;9.978;2024-02-28T11:29:27;6.50;95.70
25438;DHT22;13364;49.084;9.978;2024-02-28T11:31:58;6.50;95.20
25438;DHT22;13364;49.084;9.978;2024-02-28T11:34:24;6.40;94.90
25438;DHT22;13364;49.084;9.978;2024-02-28T11:36:52;6.40;94.90
25438;DHT22;13364;49.084;9.978;2024-02-28T11:39:20;6.30;95.40
25438;DHT22;13364;49.084;9.978;2024-02-28T11:41:48;6.20;95.80
25438;DHT22;13364;49.084;9.978;2024-02-28T11:44:17;6.00;95.80
25438;DHT22;13364;49.084;9.978;2024-02-28T11:46:45;5.90;96.70
25438;DHT22;13364;49.084;9.978;2024-02-28T11:49:12;5.80;97.30
25438;DHT22;13364;49.084;9.978;2024-02-28T11:51:43;5.80;98.20
25438;DHT22;13364;49.084;9.978;2024-02-28T11:54:10;5.80;98.60
25438;DHT22;13364;49.084;9.978;2024-02-28T11:56:38;5.90;98.00
25438;DHT22;13364;49.084;9.978;2024-02-28T11:59:06;5.90;98.10
25438;DHT22;13364;49.084;9.978;2024-02-28T12:01:35;6.00;98.00
25438;DHT22;13364;49.084;9.978;2024-02-28T12:04:04;6.00;97.00
25438;DHT22;13364;49.084;9.978;2024-02-28T12:06:35;6.10;97.30
25438;DHT22;13364;49.084;9.978;2024-02-28T12:09:04;6.10;96.80
25438;DHT22;13364;49.084;9.978;2024-02-28T12:11:31;6.10;97.00
25438;DHT22;13364;49.084;9.978;2024-02-28T12:13:58;6.20;96.60
25438;DHT22;13364;49.084;9.978;2024-02-28T12:16:26;6.20;96.30
25438;DHT22;13364;49.084;9.978;2024-02-28T12:18:54;6.20;96.20
25438;DHT22;13364;49.084;9.978;2024-02-28T12:21:21;6.20;96.70
25438;DHT22;13364;49.084;9.978;2024-02-28T12:23:49;6.20;96.40
25438;DHT22;13364;49.084;9.978;2024-02-28T12:26:17;6.20;95.70
25438;DHT22;13364;49.084;9.978;2024-02-28T12:28:47;6.20;96.30
25438;DHT22;13364;49.084;9.978;2024-02-28T12:31:14;6.30;96.90
25438;DHT22;13364;49.084;9.978;2024-02-28T12:33:41;6.40;96.50
25438;DHT22;13364;49.084;9.978;2024-02-28T12:36:09;6.50;96.00
25438;DHT22;13364;49.084;9.978;2024-02-28T12:38:36;6.70;96.10
25438;DHT22;13364;49.084;9.978;2024-02-28T12:41:02;6.90;94.50
25438;DHT22;13364;49.084;9.978;2024-02-28T12:43:30;6.90;93.30
25438;DHT22;13364;49.084;9.978;2024-02-28T12:45:59;6.90;92.80
25438;DHT22;13364;49.084;9.978;2024-02-28T12:48:26;6.90;92.80
25438;DHT22;13364;49.084;9.978;2024-02-28T12:50:53;6.90;93.20
25438;DHT22;13364;49.084;9.978;2024-02-28T12:53:19;6.90;93.30
25438;DHT22;13364;49.084;9.978;2024-02-28T12:55:46;6.90;92.70
25438;DHT22;13364;49.084;9.978;2024-02-28T12:58:13;6.80;92.90
25438;DHT22;13364;49.084;9.978;2024-02-28T13:00:40;6.80;92.60
25438;DHT22;13364;49.084;9.978;2024-02-28T13:03:08;6.80;93.10
25438;DHT22;13364;49.084;9.978;2024-02-28T13:05:35;6.80;93.30
25438;DHT22;13364;49.084;9.978;2024-02-28T13:08:02;6.80;92.00
25438;DHT22;13364;49.084;9.978;2024-02-28T13:10:30;6.80;91.70
25438;DHT22;13364;49.084;9.978;2024-02-28T13:12:57;6.70;91.70
25438;DHT22;13364;49.084;9.978;2024-02-28T13:15:24;6.80;91.70
25438;DHT22;13364;49.084;9.978;2024-02-28T13:17:50;6.70;91.20
25438;DHT22;13364;49.084;9.978;2024-02-28T13:20:19;6.60;92.10
25438;DHT22;13364;49.084;9.978;2024-02-28T13:22:47;6.50;92.10
25438;DHT22;13364;49.084;9.978;2024-02-28T13:25:14;6.40;92.60
25438;DHT22;13364;49.084;9.978;2024-02-28T13:27:42;6.30;92.50
25438;DHT22;13364;49.084;9.978;2024-02-28T13:30:09;6.10;93.10
25438;DHT22;13364;49.084;9.978;2024-02-28T13:32:36;6.00;93.70
25438;DHT22;13364;49.084;9.978;2024-02-28T13:35:03;5.90;94.20
25438;DHT22;13364;49.084;9.978;2024-02-28T13:37:30;5.90;94.30
25438;DHT22;13364;49.084;9.978;2024-02-28T13:39:58;5.80;94.40
25438;DHT22;13364;49.084;9.978;2024-02-28T13:42:25;5.90;94.40
25438;DHT22;13364;49.084;9.978;2024-02-28T13:44:52;6.00;94.80
25438;DHT22;13364;49.084;9.978;2024-02-28T13:47:19;6.10;93.70
25438;DHT22;13364;49.084;9.978;2024-02-28T13:49:45;6.20;93.80
25438;DHT22;13364;49.084;9.978;2024-02-28T13:52:13;6.40;93.80
25438;DHT22;13364;49.084;9.978;2024-02-28T13:54:40;6.50;93.10
25438;DHT22;13364;49.084;9.978;2024-02-28T13:57:07;6.60;92.20
25438;DHT22;13364;49.084;9.978;2024-02-28T13:59:37;6.70;92.40
25438;DHT22;13364;49.084;9.978;2024-02-28T14:02:04;6.80;92.20
25438;DHT22;13364;49.084;9.978;2024-02-28T14:04:32;7.00;92.10
25438;DHT22;13364;49.084;9.978;2024-02-28T14:06:58;7.20;91.30
25438;DHT22;13364;49.084;9.978;2024-02-28T14:09:25;7.30;90.50
25438;DHT22;13364;49.084;9.978;2024-02-28T14:11:52;7.50;90.00
25438;DHT22;13364;49.084;9.978;2024-02-28T14:14:19;7.60;89.30
25438;DHT22;13364;49.084;9.978;2024-02-28T14:16:46;7.70;88.40
25438;DHT22;13364;49.084;9.978;2024-02-28T14:19:12;7.80;88.00
25438;DHT22;13364;49.084;9.978;2024-02-28T14:21:39;7.90;87.40
25438;DHT22;13364;49.084;9.978;2024-02-28T14:24:06;8.00;87.00
25438;DHT22;13364;49.084;9.978;2024-02-28T14:26:33;8.00;86.50
25438;DHT22;13364;49.084;9.978;2024-02-28T14:29:00;8.10;86.20
25438;DHT22;13364;49.084;9.978;2024-02-28T14:31:27;8.20;85.60
25438;DHT22;13364;49.084;9.978;2024-02-28T14:33:54;8.30;84.90
25438;DHT22;13364;49.084;9.978;2024-02-28T14:36:21;8.40;84.10
25438;DHT22;13364;49.084;9.978;2024-02-28T14:38:48;8.40;83.90
25438;DHT22;13364;49.084;9.978;2024-02-28T14:41:15;8.40;82.40
25438;DHT22;13364;49.084;9.978;2024-02-28T14:43:42;8.30;82.80
25438;DHT22;13364;49.084;9.978;2024-02-28T14:46:09;8.20;83.30
25438;DHT22;13364;49.084;9.978;2024-02-28T14:48:37;8.20;83.90
25438;DHT22;13364;49.084;9.978;2024-02-28T14:51:05;8.20;84.30
25438;DHT22;13364;49.084;9.978;2024-02-28T14:53:33;8.20;84.50
25438;DHT22;13364;49.084;9.978;2024-02-28T14:55:59;8.30;84.00
25438;DHT22;13364;49.084;9.978;2024-02-28T14:58:26;8.30;84.00
25438;DHT22;13364;49.084;9.978;2024-02-28T15:00:53;8.40;83.70
25438;DHT22;13364;49.084;9.978;2024-02-28T15:03:25;8.40;83.70
25438;DHT22;13364;49.084;9.978;2024-02-28T15:05:52;8.50;83.90
25438;DHT22;13364;49.084;9.978;2024-02-28T15:08:19;8.50;83.30
25438;DHT22;13364;49.084;9.978;2024-02-28T15:10:46;8.50;82.80
25438;DHT22;13364;49.084;9.978;2024-02-28T15:13:13;8.60;82.20
25438;DHT22;13364;49.084;9.978;2024-02-28T15:15:40;8.60;82.40
25438;DHT22;13364;49.084;9.978;2024-02-28T15:18:09;8.60;82.20
25438;DHT22;13364;49.084;9.978;2024-02-28T15:20:35;8.70;82.60
25438;DHT22;13364;49.084;9.978;2024-02-28T15:23:03;8.70;82.50
25438;DHT22;13364;49.084;9.978;2024-02-28T15:25:30;8.80;82.00
25438;DHT22;13364;49.084;9.978;2024-02-28T15:27:57;8.90;81.40
25438;DHT22;13364;49.084;9.978;2024-02-28T15:30:24;8.90;81.30
25438;DHT22;13364;49.084;9.978;2024-02-28T15:32:51;8.90;81.30
25438;DHT22;13364;49.084;9.978;2024-02-28T15:35:18;8.90;81.20